Foxboro, Massachusetts
Current Conditions -  °F | °C
As of 12:11 PM on Wednesday 26 Nov 2014 (Local Time) from KOWD Reporting Station
Moderate Rain Moderate Rain  
Wind Chill: 31°   Ceiling: 900
Heat Index: 36°   Visibility: 1.5mi
Dew Point: 34°   Wind: 6mph
Humidity: 93%   Direction: 360°N
Pressure: 30.12"   Gusts: NA
Location:  42.06°N, 71.25°W
Report Text: KOWD 261711Z 36005KT 1 1/2SM RA BR BKN009 OVC014 02/01 A3012 RMK AO2 T00220011 PNO $
Loading
Personal Weather Stations






























Interactive Weather Map New forecast layout! Learn more

10-Day Weather Forecast

Advertisements
Track Severe Weather on mobile